Terminal Aerodrome Forecast
Issued by NWS Duluth, MN

Home | Current Version | Previous Version | Text Only | Print | Product List | Glossary On
Versions: 1 2 3 4 5 6 7 8 9 10 11 12 13 14 15 16 17
000
FTUS43 KDLH 192336
TAFINL
TAF
KINL 192336Z 2000/2024 VRB03KT P6SM SCT070
     FM200900 14003KT P6SM BKN090
     FM202200 21008KT P6SM BKN040=

USA.gov is the U.S. government's official web portal to all federal, state and local government web resources and services.